Aérodrome :
LOGIN :

S'inscrire | Disclaimer

   EN    FR    IT 

 










Légende :    VFR   VFR Marginal   IFR   IFR Intensif   IFR Très Intensif
Visi : 
Plafond : 
>= 8 km
>= 3000ft
5 à 8 km
1000 à 3000 ft
1500m à 5 km
500 à 1000 ft
800 à 1500m
200 à 500 ft
< 800m
< 200 ft
Symboles :   Orages  Brouillard  Fortes neiges  Fortes précipitations  Vent > 20 kt
SIGMETs :   Divers  Orages  Givrage  Turbulence  Onde Orograph.  Cendres Volcan.







- Altitude de l'aérodrome : 197 ft
- Code IATA : XOG
- Voir les cartes d'approche


LFMO - Orange

DERNIER METAR :
  • 170030Z AUTO 00000KT 2400 BR VV/// 15/14 Q1018 BECMG 9999 NSW FEW075 OVC110

METARs EXPIRÉS :
  • 170000Z AUTO 00000KT 1800 BR NSC 15/15 Q1018 BECMG 9999 NSW
  • 162330Z AUTO 00000KT 3700 BR NSC 15/15 Q1018 BECMG 9999 NSW
  • 162300Z AUTO 00000KT 3400 BR BKN078 BKN092 OVC110 16/15 Q1018 BECMG 9999 NSW
  • 162230Z AUTO 09002KT 3500 BR BKN078 OVC098 16/15 Q1019 BECMG 9999 NSW
  • 162200Z AUTO 00000KT 5000 BR OVC078 16/15 Q1018 NOSIG

TAF TAF LFMO
Valide du 16 à 21h jusqu'au 17 à 21h UTC


162000Z 1621/1721 VRB02KT 9999 FEW075 OVC110
Pas de NOTAMs connus pour ce terrain.



MET'MAP, la Météo Aéronautique d'un coup d'oeil ! - Copyright ORBIFLY Décembre 2007 - Disclaimer

ORBIFLY MET'MAP TEAM :

Programmation & Développement : Alexandra Zaïnal
Conception & Développement : Baudouin d'Aumeries
Co-Programmation & Développement : Marc-Olivier Méhu
Soutien technique & logistique : Manuel Goepfert

Contact : metmap@orbifly.com




SOURCES & CREDITS :

   NOAA